createdAt,value
2022-08-17T00:00:35.006Z,17.37
2022-08-17T00:01:51.954Z,17.50
2022-08-17T00:03:05.725Z,17.55
2022-08-17T00:04:14.642Z,17.50
2022-08-17T00:05:25.139Z,17.57
2022-08-17T00:06:33.380Z,17.75
2022-08-17T00:07:41.170Z,17.73
2022-08-17T00:08:52.423Z,17.78
2022-08-17T00:09:58.931Z,17.64
2022-08-17T00:11:08.303Z,17.74
2022-08-17T00:12:43.431Z,17.84
2022-08-17T00:13:47.091Z,17.94
2022-08-17T00:14:55.375Z,17.96
2022-08-17T00:16:05.101Z,17.85
2022-08-17T00:17:11.307Z,17.94
2022-08-17T00:19:00.937Z,18.32
2022-08-17T00:19:45.171Z,18.45
2022-08-17T00:20:52.444Z,17.97
2022-08-17T00:22:31.360Z,18.09
2022-08-17T00:23:29.542Z,17.91
2022-08-17T00:24:36.930Z,17.98
2022-08-17T00:25:46.964Z,18.14
2022-08-17T00:26:54.040Z,18.28
2022-08-17T00:28:02.578Z,18.17
2022-08-17T00:29:08.679Z,18.26
2022-08-17T00:30:17.367Z,18.29
2022-08-17T00:31:25.038Z,18.28
2022-08-17T00:33:15.071Z,18.27
2022-08-17T00:33:59.412Z,18.45
2022-08-17T00:35:09.187Z,18.81
2022-08-17T00:36:15.741Z,19.06
2022-08-17T00:37:22.094Z,19.24
2022-08-17T00:38:29.077Z,19.29
2022-08-17T00:39:37.999Z,19.44
2022-08-17T00:40:55.843Z,19.35
2022-08-17T00:42:17.432Z,19.35
2022-08-17T00:43:42.231Z,19.49
2022-08-17T00:44:51.282Z,19.58
2022-08-17T00:45:57.844Z,19.53
2022-08-17T00:47:04.479Z,19.62
2022-08-17T00:48:29.882Z,19.67
2022-08-17T00:49:40.161Z,19.42
2022-08-17T00:51:00.024Z,19.80
2022-08-17T00:52:12.204Z,19.90
2022-08-17T00:53:20.901Z,19.93
2022-08-17T00:54:41.896Z,19.88
2022-08-17T00:55:51.548Z,19.94
2022-08-17T00:57:00.304Z,20.21
2022-08-17T00:58:08.415Z,20.48
2022-08-17T00:59:15.770Z,20.38
2022-08-17T01:00:35.140Z,20.32
2022-08-17T01:01:46.885Z,20.65
2022-08-17T01:02:57.669Z,20.78
2022-08-17T01:04:06.193Z,20.75
2022-08-17T01:05:26.499Z,21.01
2022-08-17T01:06:37.697Z,21.18
2022-08-17T01:07:46.406Z,21.06
2022-08-17T01:08:57.513Z,21.11
2022-08-17T01:10:58.953Z,21.31
2022-08-17T01:11:41.760Z,21.08
2022-08-17T01:12:50.189Z,21.20
2022-08-17T01:13:57.114Z,21.41
2022-08-17T01:15:02.994Z,21.56
2022-08-17T01:16:27.629Z,21.42
2022-08-17T01:17:34.271Z,21.55
2022-08-17T01:18:40.451Z,21.52
2022-08-17T01:19:46.851Z,21.59
2022-08-17T01:20:54.897Z,21.79
2022-08-17T01:22:13.570Z,21.96
2022-08-17T01:23:21.701Z,22.05
2022-08-17T01:24:33.702Z,22.28
2022-08-17T01:25:43.083Z,22.03
2022-08-17T01:26:50.997Z,22.08
2022-08-17T01:27:58.116Z,22.35
2022-08-17T01:29:06.371Z,22.46
2022-08-17T01:30:58.091Z,22.44
2022-08-17T01:31:48.357Z,22.76
2022-08-17T01:32:56.402Z,22.91
2022-08-17T01:34:03.893Z,23.43
2022-08-17T01:35:11.576Z,23.59
2022-08-17T01:36:17.431Z,23.95
2022-08-17T01:37:29.613Z,23.99
2022-08-17T01:38:40.068Z,24.18
2022-08-17T01:39:53.609Z,24.10
2022-08-17T01:41:06.032Z,24.07
2022-08-17T01:42:25.695Z,24.13
2022-08-17T01:43:48.318Z,24.22
2022-08-17T01:45:00.231Z,24.18
2022-08-17T01:46:08.891Z,24.12
2022-08-17T01:47:14.771Z,24.20
2022-08-17T01:48:22.203Z,24.27
2022-08-17T01:49:29.117Z,24.42
2022-08-17T01:50:41.600Z,24.49
2022-08-17T01:51:49.230Z,24.53
2022-08-17T01:53:01.677Z,24.39
2022-08-17T01:54:12.037Z,24.65
2022-08-17T01:55:19.190Z,24.55
2022-08-17T01:56:30.051Z,24.59
2022-08-17T01:57:36.978Z,24.58
2022-08-17T01:58:45.945Z,24.72
2022-08-17T01:59:55.356Z,24.75
2022-08-17T02:01:03.462Z,24.88
2022-08-17T02:02:11.883Z,24.96
2022-08-17T02:03:37.642Z,25.16
2022-08-17T02:04:44.534Z,25.49
2022-08-17T02:05:50.899Z,25.69
2022-08-17T02:06:58.003Z,25.78
2022-08-17T02:08:05.291Z,26.03
2022-08-17T02:09:16.866Z,26.07
2022-08-17T02:10:24.846Z,26.40
2022-08-17T02:11:40.895Z,26.46
2022-08-17T02:12:48.313Z,26.88
2022-08-17T02:14:02.485Z,27.04
2022-08-17T02:15:13.026Z,27.33
2022-08-17T02:16:20.850Z,27.55
2022-08-17T02:17:28.722Z,27.80
2022-08-17T02:18:40.333Z,28.05
2022-08-17T02:19:48.609Z,28.19
2022-08-17T02:20:58.712Z,28.58
2022-08-17T02:22:06.298Z,28.91
2022-08-17T02:23:13.693Z,29.03
2022-08-17T02:24:59.731Z,29.00
2022-08-17T02:25:55.109Z,29.05
2022-08-17T02:27:02.698Z,29.28
2022-08-17T02:28:11.896Z,29.03
2022-08-17T02:29:18.411Z,29.31
2022-08-17T02:30:59.778Z,29.29
2022-08-17T02:31:56.610Z,29.56
2022-08-17T02:33:04.029Z,29.97
2022-08-17T02:34:13.761Z,30.23
2022-08-17T02:35:19.770Z,30.51
2022-08-17T02:36:30.414Z,30.54
2022-08-17T02:37:39.110Z,30.76
2022-08-17T02:38:47.706Z,30.89
2022-08-17T02:39:58.535Z,31.16
2022-08-17T02:41:05.669Z,30.86
2022-08-17T02:42:15.263Z,30.68
2022-08-17T02:43:22.581Z,29.99
2022-08-17T02:44:35.447Z,29.83
2022-08-17T02:45:50.950Z,30.06
2022-08-17T02:47:00.084Z,30.08
2022-08-17T02:48:07.736Z,29.86
2022-08-17T02:49:16.535Z,29.28
2022-08-17T02:50:25.708Z,29.07
2022-08-17T02:51:33.290Z,29.08
2022-08-17T02:52:48.873Z,29.11
2022-08-17T02:54:39.078Z,28.99
2022-08-17T02:55:41.143Z,29.05
2022-08-17T02:56:51.067Z,29.22
2022-08-17T02:57:58.363Z,29.17
2022-08-17T02:59:09.959Z,29.17
2022-08-17T03:00:19.826Z,29.51
2022-08-17T03:01:27.502Z,29.69
2022-08-17T03:02:40.420Z,29.62
2022-08-17T03:03:48.615Z,29.76
2022-08-17T03:04:57.805Z,29.98
2022-08-17T03:06:05.207Z,30.24
2022-08-17T03:07:11.434Z,30.27
2022-08-17T03:08:18.710Z,30.46
2022-08-17T03:09:24.506Z,30.95
2022-08-17T03:10:30.815Z,31.69
2022-08-17T03:11:36.752Z,32.15
2022-08-17T03:12:45.175Z,32.54
2022-08-17T03:13:52.047Z,33.02
2022-08-17T03:14:59.397Z,33.32
2022-08-17T03:16:05.299Z,33.35
2022-08-17T03:17:17.166Z,33.57
2022-08-17T03:18:25.981Z,33.87
2022-08-17T03:19:33.080Z,34.21
2022-08-17T03:20:39.452Z,34.40
2022-08-17T03:21:47.353Z,34.66
2022-08-17T03:23:05.656Z,34.72
2022-08-17T03:24:15.835Z,34.78
2022-08-17T03:25:36.995Z,34.63
2022-08-17T03:26:48.506Z,34.85
2022-08-17T03:27:58.283Z,34.87
2022-08-17T03:29:04.936Z,34.97
2022-08-17T03:30:14.167Z,35.04
2022-08-17T03:31:21.948Z,35.13
2022-08-17T03:32:28.408Z,35.33
2022-08-17T03:33:35.939Z,35.42
2022-08-17T03:34:44.122Z,35.78
2022-08-17T03:35:52.359Z,35.76
2022-08-17T03:36:59.774Z,35.91
2022-08-17T03:38:07.759Z,36.13
2022-08-17T03:39:13.930Z,36.27
2022-08-17T03:40:55.026Z,36.41
2022-08-17T03:41:53.812Z,36.54
2022-08-17T03:43:10.062Z,36.62
2022-08-17T03:44:16.754Z,36.76
2022-08-17T03:45:48.180Z,37.04
2022-08-17T03:47:19.919Z,37.03
2022-08-17T03:48:45.769Z,37.17
2022-08-17T03:50:16.553Z,37.33
2022-08-17T03:51:44.202Z,37.44
2022-08-17T03:53:10.687Z,37.57
2022-08-17T03:54:37.371Z,37.97
2022-08-17T03:56:05.431Z,38.16
2022-08-17T03:57:12.408Z,38.37
2022-08-17T03:58:18.302Z,38.45
2022-08-17T03:59:25.002Z,38.60
2022-08-17T04:00:36.076Z,38.50
2022-08-17T04:01:51.229Z,38.65
2022-08-17T04:03:01.827Z,38.98
2022-08-17T04:04:10.625Z,39.07
2022-08-17T04:05:17.966Z,39.30
2022-08-17T04:06:32.245Z,39.29
2022-08-17T04:07:39.864Z,39.46
2022-08-17T04:08:46.823Z,39.56
2022-08-17T04:09:55.126Z,39.66
2022-08-17T04:11:02.239Z,39.66
2022-08-17T04:12:19.747Z,39.72
2022-08-17T04:13:28.512Z,40.01
2022-08-17T04:14:52.945Z,40.09
2022-08-17T04:16:08.511Z,40.38
2022-08-17T04:17:31.258Z,40.36
2022-08-17T04:18:41.232Z,40.56
2022-08-17T04:19:53.255Z,40.73
2022-08-17T04:21:00.379Z,40.95
2022-08-17T04:22:06.697Z,41.19
2022-08-17T04:23:17.619Z,41.28
2022-08-17T04:24:24.011Z,41.50
2022-08-17T04:25:31.079Z,41.46
2022-08-17T04:26:52.128Z,41.49
2022-08-17T04:28:02.321Z,41.50
2022-08-17T04:29:08.525Z,41.52
2022-08-17T04:30:14.560Z,41.76
2022-08-17T04:31:20.095Z,41.81
2022-08-17T04:33:00.470Z,41.85
2022-08-17T04:33:52.844Z,41.74
2022-08-17T04:35:01.401Z,42.06
2022-08-17T04:36:09.532Z,42.12
2022-08-17T04:37:18.363Z,42.28
2022-08-17T04:38:28.287Z,42.22
2022-08-17T04:39:36.103Z,42.42
2022-08-17T04:41:09.180Z,42.43
2022-08-17T04:42:18.681Z,42.59
2022-08-17T04:43:31.709Z,42.58
2022-08-17T04:44:39.627Z,42.71
2022-08-17T04:46:07.120Z,42.97
2022-08-17T04:47:15.716Z,43.04
2022-08-17T04:48:23.130Z,43.26
2022-08-17T04:49:38.477Z,43.19
2022-08-17T04:50:48.367Z,43.33
2022-08-17T04:51:56.240Z,43.32
2022-08-17T04:53:05.903Z,43.58
2022-08-17T04:54:18.704Z,43.69
2022-08-17T04:55:25.203Z,43.74
2022-08-17T04:56:31.311Z,43.65
2022-08-17T04:57:41.815Z,43.56
2022-08-17T04:58:52.672Z,43.74
2022-08-17T04:59:59.802Z,43.80
2022-08-17T05:01:07.188Z,43.95
2022-08-17T05:02:14.743Z,43.76
2022-08-17T05:03:22.443Z,43.92
2022-08-17T05:04:35.182Z,44.20
2022-08-17T05:05:50.678Z,44.13
2022-08-17T05:06:59.868Z,44.15
2022-08-17T05:08:08.763Z,44.02
2022-08-17T05:09:15.853Z,44.43
2022-08-17T05:10:22.584Z,44.69
2022-08-17T05:11:31.690Z,45.04
2022-08-17T05:12:39.852Z,45.04
2022-08-17T05:13:51.455Z,44.93
2022-08-17T05:15:00.416Z,44.96
2022-08-17T05:16:07.762Z,44.83
2022-08-17T05:17:18.978Z,44.79
2022-08-17T05:18:26.617Z,44.81
2022-08-17T05:19:33.271Z,44.66
2022-08-17T05:20:40.636Z,45.09
2022-08-17T05:21:51.094Z,45.24
2022-08-17T05:22:59.842Z,45.45
2022-08-17T05:24:07.124Z,45.33
2022-08-17T05:25:40.131Z,45.45
2022-08-17T05:26:48.614Z,45.66
2022-08-17T05:27:57.425Z,45.63
2022-08-17T05:29:06.455Z,45.74
2022-08-17T05:30:13.545Z,45.56
2022-08-17T05:31:20.062Z,45.78
2022-08-17T05:32:39.364Z,45.63
2022-08-17T05:33:50.417Z,45.82
2022-08-17T05:35:01.029Z,45.79
2022-08-17T05:36:08.882Z,46.04
2022-08-17T05:37:37.179Z,45.75
2022-08-17T05:38:45.034Z,45.67
2022-08-17T05:39:52.551Z,45.58
2022-08-17T05:40:59.843Z,45.50
2022-08-17T05:42:06.509Z,45.54
2022-08-17T05:43:23.263Z,45.49
2022-08-17T05:44:29.922Z,45.65
2022-08-17T05:45:55.839Z,45.81
2022-08-17T05:47:04.109Z,45.99
2022-08-17T05:48:12.428Z,46.08
2022-08-17T05:49:20.678Z,46.10
2022-08-17T05:50:29.957Z,45.94
2022-08-17T05:51:59.426Z,46.02
2022-08-17T05:53:20.695Z,45.83
2022-08-17T05:55:01.496Z,45.99
2022-08-17T05:56:30.560Z,46.03
2022-08-17T05:58:20.608Z,46.03
2022-08-17T05:59:43.745Z,46.24
2022-08-17T06:01:03.083Z,46.15
2022-08-17T06:02:28.657Z,46.37
2022-08-17T06:03:45.760Z,46.66
2022-08-17T06:05:18.414Z,46.65
2022-08-17T06:06:31.248Z,46.54
2022-08-17T06:07:55.763Z,46.69
2022-08-17T06:09:13.942Z,46.65
2022-08-17T06:10:32.293Z,46.69
2022-08-17T06:11:59.742Z,46.94
2022-08-17T06:13:09.937Z,46.98
2022-08-17T06:14:49.990Z,46.93
2022-08-17T06:16:33.814Z,46.83
2022-08-17T06:17:34.313Z,46.66
2022-08-17T06:18:58.258Z,46.70
2022-08-17T06:20:09.508Z,46.66
2022-08-17T06:21:19.658Z,46.87
2022-08-17T06:22:39.907Z,47.15
2022-08-17T06:24:01.422Z,47.16
2022-08-17T06:25:10.898Z,47.04
2022-08-17T06:26:37.249Z,46.94
2022-08-17T06:27:57.228Z,46.70
2022-08-17T06:29:42.770Z,46.47
2022-08-17T06:31:01.057Z,46.13
2022-08-17T06:32:12.647Z,45.95
2022-08-17T06:33:29.219Z,45.95
2022-08-17T06:34:36.622Z,45.91
2022-08-17T06:36:09.187Z,45.74
2022-08-17T06:37:57.765Z,45.60
2022-08-17T06:39:41.135Z,45.45
2022-08-17T06:41:13.459Z,45.25
2022-08-17T06:43:04.982Z,45.32
2022-08-17T06:44:03.451Z,45.68
2022-08-17T06:45:19.974Z,45.50
2022-08-17T06:46:49.337Z,45.41
2022-08-17T06:48:18.015Z,45.54
2022-08-17T06:50:03.080Z,45.44
2022-08-17T06:51:34.996Z,45.73
2022-08-17T06:53:09.665Z,45.81
2022-08-17T06:54:39.095Z,46.06
2022-08-17T06:56:06.492Z,46.23
2022-08-17T06:57:19.770Z,46.54
2022-08-17T06:58:29.581Z,46.42
2022-08-17T07:00:14.573Z,46.48
2022-08-17T07:01:25.803Z,46.78
2022-08-17T07:02:58.966Z,47.18
2022-08-17T07:04:21.934Z,47.55
2022-08-17T07:06:08.624Z,47.72
2022-08-17T07:07:32.878Z,47.76
2022-08-17T07:08:58.085Z,47.69
2022-08-17T07:10:05.451Z,47.74
2022-08-17T07:11:43.460Z,47.71
2022-08-17T07:12:52.488Z,47.57
2022-08-17T07:14:06.119Z,47.50
2022-08-17T07:15:22.949Z,47.69
2022-08-17T07:16:33.607Z,47.68
2022-08-17T07:17:47.821Z,47.66
2022-08-17T07:18:55.819Z,47.43
2022-08-17T07:20:10.175Z,47.35
2022-08-17T07:21:45.068Z,47.24
2022-08-17T07:23:02.417Z,47.17
2022-08-17T07:25:02.594Z,46.98
2022-08-17T07:26:09.910Z,46.68
2022-08-17T07:27:31.801Z,46.63
2022-08-17T07:28:38.528Z,46.72
2022-08-17T07:29:51.225Z,46.99
2022-08-17T07:31:00.426Z,47.06
2022-08-17T07:32:07.874Z,47.35
2022-08-17T07:33:20.703Z,47.54
2022-08-17T07:34:26.544Z,47.86
2022-08-17T07:35:45.307Z,48.08
2022-08-17T07:37:05.803Z,48.32
2022-08-17T07:38:25.603Z,48.40
2022-08-17T07:39:34.676Z,48.61
2022-08-17T07:41:08.971Z,48.55
2022-08-17T07:42:15.435Z,48.51
2022-08-17T07:43:42.663Z,48.57
2022-08-17T07:44:55.093Z,48.65
2022-08-17T07:46:46.977Z,49.08
2022-08-17T07:48:12.391Z,48.87
2022-08-17T07:49:36.550Z,48.56
2022-08-17T07:50:43.529Z,48.70
2022-08-17T07:52:00.000Z,48.77
2022-08-17T07:53:24.746Z,48.87
2022-08-17T07:54:37.287Z,48.96
2022-08-17T07:55:43.665Z,49.31
2022-08-17T07:56:53.577Z,49.22
2022-08-17T07:58:00.798Z,49.13
2022-08-17T07:59:27.223Z,49.21
2022-08-17T08:00:40.044Z,49.50
2022-08-17T08:02:07.726Z,49.16
2022-08-17T08:03:32.979Z,48.92
2022-08-17T08:05:02.401Z,48.95
2022-08-17T08:06:22.395Z,49.02
2022-08-17T08:07:32.435Z,49.06
2022-08-17T08:08:44.539Z,49.06
2022-08-17T08:10:15.235Z,49.23
2022-08-17T08:11:35.656Z,49.83
2022-08-17T08:12:45.589Z,49.93
2022-08-17T08:13:52.793Z,50.12
2022-08-17T08:15:00.839Z,49.84
2022-08-17T08:16:28.005Z,49.72
2022-08-17T08:17:37.380Z,50.11
2022-08-17T08:18:54.258Z,50.11
2022-08-17T08:20:34.827Z,50.05
2022-08-17T08:22:12.724Z,50.08
2022-08-17T08:23:42.535Z,50.86
2022-08-17T08:25:06.244Z,51.07
2022-08-17T08:26:45.973Z,51.40
2022-08-17T08:28:23.261Z,51.56
2022-08-17T08:29:29.898Z,51.79
2022-08-17T08:30:44.726Z,51.72
2022-08-17T08:32:21.320Z,51.85
2022-08-17T08:33:33.074Z,51.92
2022-08-17T08:35:10.629Z,51.88
2022-08-17T08:36:56.938Z,52.55
2022-08-17T08:38:11.254Z,52.61
2022-08-17T08:39:28.839Z,52.53
2022-08-17T08:41:03.032Z,52.66
2022-08-17T08:42:39.167Z,52.62
2022-08-17T08:44:04.581Z,52.40
2022-08-17T08:45:42.382Z,52.62
2022-08-17T08:46:55.365Z,52.83
2022-08-17T08:48:52.835Z,53.10
2022-08-17T08:50:05.707Z,53.56
2022-08-17T08:51:24.530Z,53.27
2022-08-17T08:52:49.134Z,53.47
2022-08-17T08:54:14.924Z,53.69
2022-08-17T08:55:45.434Z,53.55
2022-08-17T08:57:29.124Z,53.71
2022-08-17T08:58:41.715Z,53.74
2022-08-17T09:00:16.263Z,53.87
2022-08-17T09:01:53.045Z,53.84
2022-08-17T09:03:18.441Z,53.78
2022-08-17T09:05:13.822Z,53.55
2022-08-17T09:06:37.540Z,53.27
2022-08-17T09:08:17.255Z,53.21
2022-08-17T09:09:50.325Z,53.32
2022-08-17T09:11:05.468Z,53.37
2022-08-17T09:12:48.914Z,53.27
2022-08-17T09:13:55.645Z,53.11
2022-08-17T09:15:18.617Z,52.94
2022-08-17T09:16:43.836Z,52.87
2022-08-17T09:19:02.199Z,52.78
2022-08-17T09:20:03.272Z,52.73
2022-08-17T09:21:33.849Z,52.81
2022-08-17T09:22:43.918Z,52.88
2022-08-17T09:24:12.232Z,52.86
2022-08-17T09:25:22.295Z,52.84
2022-08-17T09:26:31.513Z,52.92
2022-08-17T09:27:52.910Z,52.79
2022-08-17T09:29:10.535Z,52.83
2022-08-17T09:30:16.479Z,52.75
2022-08-17T09:31:31.269Z,52.69
2022-08-17T09:32:55.694Z,52.65
2022-08-17T09:34:06.315Z,52.76
2022-08-17T09:35:18.615Z,52.86
2022-08-17T09:36:34.627Z,52.71
2022-08-17T09:37:56.160Z,52.66
2022-08-17T09:39:11.137Z,52.63
2022-08-17T09:40:22.976Z,52.55
2022-08-17T09:41:48.966Z,52.62
2022-08-17T09:43:26.293Z,52.64
2022-08-17T09:44:44.819Z,52.63
2022-08-17T09:45:54.915Z,53.06
2022-08-17T09:47:27.544Z,52.83
2022-08-17T09:48:42.509Z,52.84
2022-08-17T09:49:50.027Z,52.67
2022-08-17T09:51:07.493Z,52.53
2022-08-17T09:52:30.905Z,52.33
2022-08-17T09:53:39.688Z,52.35
2022-08-17T09:54:46.135Z,52.41
2022-08-17T09:56:16.452Z,52.34
2022-08-17T09:57:30.220Z,52.22
2022-08-17T09:59:17.919Z,52.14
2022-08-17T10:00:28.131Z,52.48
2022-08-17T10:01:51.128Z,52.42
2022-08-17T10:03:10.548Z,52.61
2022-08-17T10:04:53.685Z,52.43
2022-08-17T10:06:28.763Z,52.63
2022-08-17T10:07:42.565Z,52.49
2022-08-17T10:09:21.039Z,52.41
2022-08-17T10:10:37.016Z,52.43
2022-08-17T10:12:17.111Z,52.48
2022-08-17T10:13:37.803Z,52.54
2022-08-17T10:15:07.719Z,52.77
2022-08-17T10:16:58.062Z,52.86
2022-08-17T10:18:16.794Z,53.21
2022-08-17T10:19:31.991Z,53.31
2022-08-17T10:21:21.765Z,53.13
2022-08-17T10:22:53.203Z,53.17
2022-08-17T10:25:21.598Z,53.08
2022-08-17T10:26:25.657Z,53.11
2022-08-17T10:27:56.700Z,53.52
2022-08-17T10:29:13.012Z,53.66
2022-08-17T10:30:19.708Z,53.41
2022-08-17T10:31:36.265Z,53.52
2022-08-17T10:32:57.057Z,53.63
2022-08-17T10:34:42.097Z,53.72
2022-08-17T10:36:08.712Z,53.77
2022-08-17T10:37:50.947Z,53.80
2022-08-17T10:39:32.369Z,54.23
2022-08-17T10:40:54.150Z,54.52
2022-08-17T10:42:03.586Z,54.41
2022-08-17T10:43:30.395Z,54.46
2022-08-17T10:45:20.167Z,54.64
2022-08-17T10:47:02.672Z,54.26
2022-08-17T10:48:13.346Z,54.49
2022-08-17T10:49:19.465Z,54.75
2022-08-17T10:51:02.724Z,54.76
2022-08-17T10:52:30.948Z,54.69
2022-08-17T10:53:36.796Z,54.52
2022-08-17T10:55:07.746Z,54.70
2022-08-17T10:56:17.989Z,54.67
2022-08-17T10:57:32.843Z,54.90
2022-08-17T10:58:55.775Z,54.99
2022-08-17T11:00:27.452Z,55.08
2022-08-17T11:02:01.650Z,55.19
2022-08-17T11:03:25.909Z,55.37
2022-08-17T11:04:37.606Z,55.46
2022-08-17T11:06:13.123Z,55.49
2022-08-17T11:07:31.286Z,55.60
2022-08-17T11:08:58.048Z,55.60
2022-08-17T11:10:10.481Z,55.74
2022-08-17T11:11:37.138Z,55.61
2022-08-17T11:13:05.697Z,55.44
2022-08-17T11:14:55.756Z,55.55
2022-08-17T11:16:25.816Z,55.60
2022-08-17T11:17:53.690Z,55.58
2022-08-17T11:19:36.282Z,55.62
2022-08-17T11:20:55.981Z,55.48
2022-08-17T11:22:32.732Z,55.31
2022-08-17T11:24:07.433Z,55.06
2022-08-17T11:25:35.871Z,55.08
2022-08-17T11:26:48.517Z,55.25
2022-08-17T11:28:06.722Z,55.08
2022-08-17T11:29:26.234Z,55.17
2022-08-17T11:30:45.213Z,55.06
2022-08-17T11:32:03.518Z,55.20
2022-08-17T11:33:33.940Z,55.20
2022-08-17T11:34:45.262Z,55.52
2022-08-17T11:35:52.501Z,55.79
2022-08-17T11:37:26.659Z,56.14
2022-08-17T11:39:00.520Z,56.29
2022-08-17T11:40:16.212Z,56.47
2022-08-17T11:41:34.226Z,56.72
2022-08-17T11:43:11.969Z,57.01
2022-08-17T11:44:55.198Z,57.18
2022-08-17T11:46:51.702Z,57.08
2022-08-17T11:48:44.971Z,57.16
2022-08-17T11:50:37.615Z,57.29
2022-08-17T11:51:56.547Z,57.47
2022-08-17T11:53:05.449Z,57.44
2022-08-17T11:54:34.610Z,57.61
2022-08-17T11:55:44.851Z,57.76
2022-08-17T11:56:53.673Z,57.74
2022-08-17T11:58:03.424Z,57.65
2022-08-17T11:59:44.336Z,57.76
2022-08-17T12:00:58.875Z,57.90
2022-08-17T12:02:32.353Z,58.15
2022-08-17T12:03:54.190Z,57.84
2022-08-17T12:05:24.079Z,57.78
2022-08-17T12:06:41.621Z,57.90
2022-08-17T12:08:06.305Z,57.69
2022-08-17T12:09:21.452Z,57.94
2022-08-17T12:10:33.151Z,57.87
2022-08-17T12:11:55.433Z,58.08
2022-08-17T12:13:15.971Z,58.51
2022-08-17T12:14:45.429Z,58.69
2022-08-17T12:15:56.985Z,58.73
2022-08-17T12:17:09.133Z,59.26
2022-08-17T12:18:32.670Z,59.58
2022-08-17T12:19:39.690Z,59.56
2022-08-17T12:20:45.583Z,59.61
2022-08-17T12:22:11.010Z,59.66
2022-08-17T12:23:37.849Z,59.68
2022-08-17T12:24:57.659Z,59.94
2022-08-17T12:26:24.389Z,59.82
2022-08-17T12:28:04.398Z,59.44
2022-08-17T12:29:18.469Z,59.27
2022-08-17T12:30:41.378Z,59.32
2022-08-17T12:31:49.985Z,59.89
2022-08-17T12:32:56.077Z,60.24
2022-08-17T12:34:04.863Z,60.34
2022-08-17T12:35:33.758Z,60.65
2022-08-17T12:36:41.975Z,60.62
2022-08-17T12:37:50.240Z,60.50
2022-08-17T12:39:13.705Z,60.32
2022-08-17T12:40:29.976Z,60.36
2022-08-17T12:41:41.393Z,60.74
2022-08-17T12:42:59.792Z,60.64
2022-08-17T12:44:50.437Z,60.93
2022-08-17T12:46:00.262Z,61.00
2022-08-17T12:47:22.194Z,61.51
2022-08-17T12:48:35.054Z,61.98
2022-08-17T12:49:43.336Z,62.16
2022-08-17T12:50:50.024Z,62.43
2022-08-17T12:52:16.723Z,62.73
2022-08-17T12:53:27.724Z,62.91
2022-08-17T12:55:07.619Z,62.97
2022-08-17T12:56:13.903Z,63.00
2022-08-17T12:57:23.443Z,62.84
2022-08-17T12:58:37.060Z,62.93
2022-08-17T12:59:59.292Z,62.86
2022-08-17T13:01:10.053Z,62.78
2022-08-17T13:02:56.961Z,62.67
2022-08-17T13:04:04.253Z,62.83
2022-08-17T13:05:35.696Z,62.67
2022-08-17T13:06:47.785Z,62.77
2022-08-17T13:07:55.632Z,62.90
2022-08-17T13:09:40.388Z,62.98
2022-08-17T13:10:56.222Z,62.96
2022-08-17T13:12:03.440Z,62.76
2022-08-17T13:13:28.390Z,62.78
2022-08-17T13:14:34.658Z,62.80
2022-08-17T13:15:52.099Z,62.82
2022-08-17T13:17:01.622Z,62.88
2022-08-17T13:18:10.002Z,62.84
2022-08-17T13:19:39.804Z,62.57
2022-08-17T13:21:00.368Z,62.62
2022-08-17T13:22:11.981Z,62.43
2022-08-17T13:23:22.592Z,62.44
2022-08-17T13:24:37.932Z,62.46
2022-08-17T13:26:05.824Z,62.43
2022-08-17T13:27:15.943Z,62.42
2022-08-17T13:28:29.786Z,62.73
2022-08-17T13:29:51.613Z,62.96
2022-08-17T13:31:51.864Z,63.06
2022-08-17T13:33:04.892Z,62.98
2022-08-17T13:34:34.816Z,62.60
2022-08-17T13:35:52.163Z,62.13
2022-08-17T13:37:26.870Z,61.85
2022-08-17T13:38:52.102Z,61.42
2022-08-17T13:40:13.415Z,61.09
2022-08-17T13:41:37.115Z,60.78
2022-08-17T13:42:54.278Z,60.56
2022-08-17T13:44:02.496Z,60.47
2022-08-17T13:45:40.868Z,60.43
2022-08-17T13:46:52.500Z,60.58
2022-08-17T13:48:12.507Z,60.38
2022-08-17T13:49:20.867Z,59.94
2022-08-17T13:50:27.223Z,59.58
2022-08-17T13:52:03.169Z,59.08
2022-08-17T13:53:19.112Z,58.47
2022-08-17T13:54:25.109Z,57.78
2022-08-17T13:55:31.831Z,57.35
2022-08-17T13:57:01.720Z,56.71
2022-08-17T13:58:07.624Z,56.16
2022-08-17T13:59:14.989Z,55.89
2022-08-17T14:00:31.555Z,55.41
2022-08-17T14:01:53.552Z,54.79
2022-08-17T14:03:02.391Z,54.08
2022-08-17T14:04:12.734Z,53.65
2022-08-17T14:05:18.731Z,52.91
2022-08-17T14:06:52.236Z,52.44
2022-08-17T14:08:06.728Z,52.12
2022-08-17T14:09:15.622Z,51.79
2022-08-17T14:10:22.353Z,51.51
2022-08-17T14:11:29.947Z,51.32
2022-08-17T14:12:37.126Z,50.99
2022-08-17T14:13:44.688Z,50.72
2022-08-17T14:14:51.208Z,50.40
2022-08-17T14:15:57.688Z,49.67
2022-08-17T14:17:03.927Z,50.00
2022-08-17T14:18:09.754Z,50.19
2022-08-17T14:19:16.440Z,49.76
2022-08-17T14:20:23.022Z,49.70
2022-08-17T14:21:30.144Z,49.84
2022-08-17T14:22:38.259Z,49.74
2022-08-17T14:23:54.281Z,49.71
2022-08-17T14:25:04.451Z,49.59
2022-08-17T14:26:17.117Z,49.40
2022-08-17T14:27:28.481Z,49.41
2022-08-17T14:28:36.386Z,49.18
2022-08-17T14:29:42.874Z,48.90
2022-08-17T14:30:49.091Z,47.85
2022-08-17T14:31:55.215Z,46.96
2022-08-17T14:33:02.990Z,45.77
2022-08-17T14:34:10.949Z,45.49
2022-08-17T14:35:17.730Z,44.95
2022-08-17T14:36:25.040Z,44.42
2022-08-17T14:37:30.827Z,43.66
2022-08-17T14:38:38.917Z,43.07
2022-08-17T14:39:46.859Z,42.73
2022-08-17T14:40:54.209Z,42.86
2022-08-17T14:42:02.146Z,42.37
2022-08-17T14:43:08.689Z,42.03
2022-08-17T14:44:17.577Z,41.80
2022-08-17T14:45:30.421Z,41.43
2022-08-17T14:46:45.195Z,40.98
2022-08-17T14:47:53.343Z,41.00
2022-08-17T14:49:03.580Z,40.79
2022-08-17T14:50:14.362Z,40.76
2022-08-17T14:51:27.001Z,40.33
2022-08-17T14:52:34.712Z,40.18
2022-08-17T14:53:47.157Z,40.02
2022-08-17T14:54:54.701Z,39.64
2022-08-17T14:56:02.927Z,39.23
2022-08-17T14:57:26.197Z,38.94
2022-08-17T14:58:40.057Z,38.96
2022-08-17T14:59:54.614Z,38.38
2022-08-17T15:01:04.101Z,38.22
2022-08-17T15:02:11.407Z,38.25
2022-08-17T15:03:18.518Z,37.69
2022-08-17T15:04:25.501Z,37.34
2022-08-17T15:05:39.760Z,36.81
2022-08-17T15:06:51.889Z,36.25
2022-08-17T15:07:58.756Z,35.97
2022-08-17T15:09:05.212Z,36.10
2022-08-17T15:10:14.950Z,36.03
2022-08-17T15:11:21.632Z,36.11
2022-08-17T15:12:32.061Z,35.98
2022-08-17T15:13:52.673Z,36.15
2022-08-17T15:15:01.778Z,35.82
2022-08-17T15:16:14.470Z,35.90
2022-08-17T15:17:22.289Z,35.71
2022-08-17T15:18:28.514Z,36.06
2022-08-17T15:19:35.822Z,35.94
2022-08-17T15:20:41.963Z,35.25
2022-08-17T15:21:49.272Z,34.93
2022-08-17T15:22:59.527Z,35.07
2022-08-17T15:24:06.868Z,35.07
2022-08-17T15:25:12.783Z,34.82
2022-08-17T15:26:21.760Z,34.51
2022-08-17T15:27:37.802Z,34.29
2022-08-17T15:28:49.001Z,34.61
2022-08-17T15:30:03.342Z,34.45
2022-08-17T15:31:10.804Z,34.24
2022-08-17T15:32:32.438Z,34.42
2022-08-17T15:33:39.139Z,34.52
2022-08-17T15:34:45.986Z,34.40
2022-08-17T15:35:54.776Z,33.71
2022-08-17T15:37:02.452Z,33.72
2022-08-17T15:38:12.101Z,32.99
2022-08-17T15:39:19.909Z,32.57
2022-08-17T15:40:26.262Z,32.40
2022-08-17T15:41:34.229Z,31.95
2022-08-17T15:42:44.618Z,31.87
2022-08-17T15:43:52.769Z,32.11
2022-08-17T15:45:01.172Z,32.00
2022-08-17T15:46:17.500Z,31.84
2022-08-17T15:47:23.414Z,31.47
2022-08-17T15:48:42.520Z,31.55
2022-08-17T15:49:56.640Z,31.81
2022-08-17T15:51:07.281Z,31.35
2022-08-17T15:52:22.517Z,31.06
2022-08-17T15:53:28.650Z,30.57
2022-08-17T15:54:36.156Z,30.51
2022-08-17T15:55:46.304Z,30.26
2022-08-17T15:56:54.114Z,30.10
2022-08-17T15:58:01.713Z,29.82
2022-08-17T15:59:10.581Z,29.80
2022-08-17T16:00:19.722Z,29.60
2022-08-17T16:02:16.300Z,28.84
2022-08-17T16:03:44.716Z,28.60
2022-08-17T16:04:29.663Z,28.31
2022-08-17T16:05:40.885Z,27.99
2022-08-17T16:06:48.253Z,27.86
2022-08-17T16:07:54.990Z,27.60
2022-08-17T16:09:01.669Z,26.74
2022-08-17T16:10:12.299Z,26.81
2022-08-17T16:11:22.325Z,27.51
2022-08-17T16:12:29.230Z,27.42
2022-08-17T16:13:40.939Z,27.10
2022-08-17T16:14:48.893Z,27.21
2022-08-17T16:15:58.067Z,27.04
2022-08-17T16:17:39.643Z,26.73
2022-08-17T16:18:37.510Z,26.95
2022-08-17T16:19:44.185Z,27.22
2022-08-17T16:20:54.641Z,27.12
2022-08-17T16:22:04.638Z,26.86
2022-08-17T16:23:20.027Z,26.77
2022-08-17T16:24:27.555Z,26.62